Terminal Aerodrome Forecast
Issued by NWS

Home | Current Version | Previous Version | Text Only | Print | Product List | Glossary On
Versions: 1 2 3 4 5 6 7 8 9 10 11 12 13 14
296
FTUS42 KGSP 241732
TAFAND
TAF
KAND 241732Z 2418/2518 19003KT P6SM BKN060
     FM250100 34003KT P6SM BKN060
     FM251000 00000KT 2SM BR SCT050 SCT100
     FM251200 24003KT P6SM SCT050=

USA.gov is the U.S. government's official web portal to all federal, state and local government web resources and services.